メインページ
METAR-TAF:

METAR-TAF

空港 :

Payam

キャラジ, イラン

緯度: 35-46-34N, 経度: 050-49-36E, 海抜: 1271m

現時点の気象観測

当レポートは40分前の06:00(UTC)に作成
西の風 4kt
気温 16°C
湿度 42%
気圧 1018 hPa
視程: 7000m
高度4000ftの雲はほとんどない

METAR: OIIP 040600Z 27004KT 7000 FEW040 16/03 Q1018

時間: 11:10 (06:40 UTC)


TAF: 見つかりません

4,000以上の空港の気象観測と天気予報(METAR報とTAF報)

利用可能な観測所は地図上に黄色い丸と赤い丸で示す。

丸の上にカーソルを重ねると観測所名を参照できる。

次にクリックすると気象観測と天気予報を参照できる。

マップの切り替え:黒色「×」印の緑ボタンをクリックして拡大、「-」印の緑ボタンをクリックして縮小、緑色の三角印をクリックして隣りの地図に切り替え


METAR-TAF: